createdAt,value
2022-08-26T00:01:32.683Z,23.87
2022-08-26T00:04:25.492Z,23.85
2022-08-26T00:07:14.653Z,23.82
2022-08-26T00:10:03.011Z,23.80
2022-08-26T00:12:52.945Z,23.66
2022-08-26T00:15:41.888Z,23.53
2022-08-26T00:18:30.977Z,23.44
2022-08-26T00:21:27.209Z,23.49
2022-08-26T00:24:15.822Z,23.43
2022-08-26T00:27:04.266Z,23.43
2022-08-26T00:29:56.339Z,23.38
2022-08-26T00:32:46.385Z,23.31
2022-08-26T00:35:36.601Z,23.37
2022-08-26T00:38:25.261Z,23.30
2022-08-26T00:41:13.804Z,23.33
2022-08-26T00:44:02.290Z,23.20
2022-08-26T00:47:01.531Z,23.13
2022-08-26T00:49:51.575Z,23.13
2022-08-26T00:52:41.567Z,23.08
2022-08-26T00:55:37.907Z,23.02
2022-08-26T00:58:29.592Z,22.95
2022-08-26T01:01:18.838Z,22.77
2022-08-26T01:04:15.248Z,22.80
2022-08-26T01:07:04.787Z,22.50
2022-08-26T01:09:54.298Z,22.58
2022-08-26T01:12:47.460Z,22.47
2022-08-26T01:15:42.734Z,22.64
2022-08-26T01:18:31.623Z,22.59
2022-08-26T01:21:32.232Z,22.55
2022-08-26T01:24:21.946Z,22.46
2022-08-26T01:27:13.804Z,22.51
2022-08-26T01:30:03.410Z,22.49
2022-08-26T01:32:53.125Z,22.43
2022-08-26T01:35:43.110Z,22.34
2022-08-26T01:38:31.604Z,22.27
2022-08-26T01:41:27.178Z,22.38
2022-08-26T01:44:23.618Z,22.38
2022-08-26T01:47:14.325Z,22.28
2022-08-26T01:50:10.530Z,22.29
2022-08-26T01:53:04.295Z,22.30
2022-08-26T01:55:57.151Z,22.20
2022-08-26T01:58:51.602Z,22.18
2022-08-26T02:01:40.149Z,22.10
2022-08-26T02:04:34.999Z,22.10
2022-08-26T02:07:26.767Z,22.06
2022-08-26T02:10:16.190Z,22.07
2022-08-26T02:13:05.582Z,22.08
2022-08-26T02:15:56.343Z,22.01
2022-08-26T02:18:46.867Z,21.96
2022-08-26T02:21:36.029Z,21.90
2022-08-26T02:24:27.823Z,21.86
2022-08-26T02:27:16.786Z,21.90
2022-08-26T02:30:11.349Z,21.88
2022-08-26T02:33:03.806Z,21.83
2022-08-26T02:35:52.133Z,21.90
2022-08-26T02:38:40.514Z,21.78
2022-08-26T02:41:31.544Z,21.83
2022-08-26T02:44:21.065Z,21.76
2022-08-26T02:47:09.564Z,21.68
2022-08-26T02:49:59.401Z,21.62
2022-08-26T02:52:48.545Z,21.56
2022-08-26T02:55:37.069Z,21.65
2022-08-26T02:58:27.572Z,21.58
2022-08-26T03:01:24.442Z,21.54
2022-08-26T03:04:13.954Z,21.54
2022-08-26T03:07:05.498Z,21.52
2022-08-26T03:09:54.907Z,21.50
2022-08-26T03:12:47.538Z,21.46
2022-08-26T03:15:36.614Z,21.56
2022-08-26T03:18:25.717Z,21.45
2022-08-26T03:21:17.121Z,21.48
2022-08-26T03:24:11.247Z,21.46
2022-08-26T03:27:01.962Z,21.37
2022-08-26T03:30:13.074Z,21.35
2022-08-26T03:33:04.292Z,21.33
2022-08-26T03:35:53.324Z,21.16
2022-08-26T03:38:41.896Z,21.15
2022-08-26T03:41:35.971Z,21.08
2022-08-26T03:44:24.361Z,21.10
2022-08-26T03:47:13.545Z,21.13
2022-08-26T03:50:02.441Z,21.04
2022-08-26T03:52:51.870Z,20.97
2022-08-26T03:55:40.533Z,21.02
2022-08-26T03:58:32.254Z,21.03
2022-08-26T04:01:20.855Z,20.98
2022-08-26T04:04:09.725Z,20.96
2022-08-26T04:07:03.903Z,21.00
2022-08-26T04:09:55.249Z,20.98
2022-08-26T04:12:43.870Z,20.95
2022-08-26T04:15:34.015Z,20.93
2022-08-26T04:18:23.040Z,20.96
2022-08-26T04:21:12.730Z,20.90
2022-08-26T04:24:04.138Z,20.98
2022-08-26T04:26:52.836Z,20.95
2022-08-26T04:29:41.762Z,21.02
2022-08-26T04:32:31.471Z,20.86
2022-08-26T04:35:25.487Z,20.90
2022-08-26T04:38:16.354Z,20.99
2022-08-26T04:41:05.598Z,21.03
2022-08-26T04:44:06.464Z,21.00
2022-08-26T04:46:55.569Z,21.10
2022-08-26T04:49:45.745Z,21.05
2022-08-26T04:52:36.136Z,21.15
2022-08-26T04:55:38.486Z,21.27
2022-08-26T04:58:28.428Z,21.28
2022-08-26T05:01:17.126Z,21.40
2022-08-26T05:04:06.275Z,21.39
2022-08-26T05:07:02.292Z,21.37
2022-08-26T05:09:51.385Z,21.38
2022-08-26T05:12:39.713Z,21.44
2022-08-26T05:15:28.986Z,21.34
2022-08-26T05:18:20.007Z,21.50
2022-08-26T05:21:09.198Z,21.58
2022-08-26T05:23:59.030Z,21.69
2022-08-26T05:26:48.251Z,21.77
2022-08-26T05:29:36.746Z,21.80
2022-08-26T05:32:25.098Z,21.82
2022-08-26T05:35:13.638Z,21.95
2022-08-26T05:38:12.258Z,21.93
2022-08-26T05:41:02.420Z,21.95
2022-08-26T05:43:52.743Z,21.95
2022-08-26T05:46:44.892Z,22.01
2022-08-26T05:49:33.385Z,22.13
2022-08-26T05:52:25.871Z,22.22
2022-08-26T05:55:14.593Z,22.27
2022-08-26T05:58:05.927Z,22.36
2022-08-26T06:00:59.411Z,22.47
2022-08-26T06:03:51.810Z,22.38
2022-08-26T06:06:41.907Z,22.65
2022-08-26T06:09:31.678Z,22.78
2022-08-26T06:12:21.425Z,22.59
2022-08-26T06:15:12.714Z,22.79
2022-08-26T06:18:04.006Z,22.73
2022-08-26T06:20:58.059Z,22.85
2022-08-26T06:24:06.957Z,22.96
2022-08-26T06:26:57.537Z,23.01
2022-08-26T06:29:45.855Z,22.98
2022-08-26T06:32:36.155Z,23.02
2022-08-26T06:35:24.795Z,23.12
2022-08-26T06:38:14.013Z,23.16
2022-08-26T06:41:02.539Z,23.39
2022-08-26T06:43:51.614Z,23.40
2022-08-26T06:46:40.697Z,23.50
2022-08-26T06:49:30.455Z,23.56
2022-08-26T06:52:24.432Z,23.59
2022-08-26T06:55:13.411Z,23.62
2022-08-26T06:58:01.795Z,23.64
2022-08-26T07:00:52.934Z,23.74
2022-08-26T07:03:41.305Z,23.82
2022-08-26T07:06:32.727Z,24.00
2022-08-26T07:09:23.215Z,24.04
2022-08-26T07:12:11.658Z,24.10
2022-08-26T07:15:00.010Z,24.24
2022-08-26T07:17:48.449Z,24.20
2022-08-26T07:20:42.258Z,24.38
2022-08-26T07:23:32.420Z,24.55
2022-08-26T07:26:23.766Z,24.52
2022-08-26T07:29:14.927Z,24.48
2022-08-26T07:32:03.891Z,24.47
2022-08-26T07:34:52.871Z,24.59
2022-08-26T07:37:41.305Z,24.78
2022-08-26T07:40:31.682Z,24.89
2022-08-26T07:43:20.235Z,25.09
2022-08-26T07:46:11.299Z,25.18
2022-08-26T07:49:03.196Z,25.37
2022-08-26T07:51:52.419Z,25.38
2022-08-26T07:54:40.910Z,25.60
2022-08-26T07:57:31.664Z,25.55
2022-08-26T08:00:25.501Z,25.77
2022-08-26T08:03:15.181Z,25.86
2022-08-26T08:06:03.673Z,25.87
2022-08-26T08:08:52.781Z,25.95
2022-08-26T08:11:41.533Z,26.07
2022-08-26T08:14:34.666Z,26.00
2022-08-26T08:17:23.215Z,26.02
2022-08-26T08:20:12.684Z,26.26
2022-08-26T08:23:02.473Z,26.39
2022-08-26T08:25:50.922Z,26.29
2022-08-26T08:28:39.964Z,26.65
2022-08-26T08:31:55.767Z,26.78
2022-08-26T08:37:35.704Z,27.00
2022-08-26T08:40:29.215Z,27.16
2022-08-26T08:43:32.162Z,27.16
2022-08-26T08:46:26.233Z,27.32
2022-08-26T08:49:16.754Z,27.35
2022-08-26T08:52:13.534Z,27.49
2022-08-26T08:55:02.419Z,27.65
2022-08-26T08:58:03.392Z,27.81
2022-08-26T09:01:03.139Z,27.97
2022-08-26T09:04:02.515Z,28.06
2022-08-26T09:09:48.648Z,28.03
2022-08-26T09:12:37.224Z,28.11
2022-08-26T09:15:30.583Z,28.30
2022-08-26T09:18:34.726Z,28.43
2022-08-26T09:21:25.134Z,28.57
2022-08-26T09:24:15.131Z,28.53
2022-08-26T09:27:07.101Z,28.60
2022-08-26T09:30:00.790Z,28.74
2022-08-26T09:33:00.280Z,28.77
2022-08-26T09:35:52.406Z,28.90
2022-08-26T09:38:41.546Z,28.98
2022-08-26T09:41:34.136Z,28.99
2022-08-26T09:44:22.619Z,29.21
2022-08-26T09:47:11.611Z,29.33
2022-08-26T09:50:09.697Z,29.32
2022-08-26T09:53:12.950Z,29.41
2022-08-26T09:56:18.463Z,29.53
2022-08-26T09:59:11.215Z,29.69
2022-08-26T10:02:18.487Z,29.68
2022-08-26T10:05:11.332Z,29.82
2022-08-26T10:08:00.362Z,30.33
2022-08-26T10:10:53.177Z,30.52
2022-08-26T10:13:46.289Z,30.49
2022-08-26T10:16:49.893Z,30.40
2022-08-26T10:19:55.732Z,30.47
2022-08-26T10:22:51.373Z,30.66
2022-08-26T10:25:46.653Z,30.48
2022-08-26T10:28:41.606Z,30.47
2022-08-26T10:31:40.944Z,30.72
2022-08-26T10:34:29.978Z,30.91
2022-08-26T10:37:21.388Z,30.84
2022-08-26T10:40:15.554Z,30.72
2022-08-26T10:43:11.237Z,30.87
2022-08-26T10:46:06.967Z,31.30
2022-08-26T10:48:59.982Z,31.28
2022-08-26T10:51:58.907Z,31.06
2022-08-26T10:54:53.937Z,31.49
2022-08-26T10:57:51.779Z,31.45
2022-08-26T11:01:02.361Z,31.52
2022-08-26T11:04:08.741Z,31.61
2022-08-26T11:07:36.394Z,31.32
2022-08-26T11:11:04.478Z,31.47
2022-08-26T11:14:00.429Z,31.86
2022-08-26T11:16:52.002Z,31.90
2022-08-26T11:20:13.766Z,31.81
2022-08-26T11:23:38.475Z,32.00
2022-08-26T11:26:56.192Z,32.24
2022-08-26T11:29:59.387Z,31.96
2022-08-26T11:32:50.600Z,32.34
2022-08-26T11:35:52.402Z,32.42
2022-08-26T11:38:43.733Z,32.13
2022-08-26T11:41:34.354Z,32.33
2022-08-26T11:44:25.790Z,32.51
2022-08-26T11:47:17.598Z,32.74
2022-08-26T11:50:10.671Z,32.86
2022-08-26T11:53:06.374Z,32.68
2022-08-26T11:55:58.225Z,33.23
2022-08-26T11:58:48.210Z,33.72
2022-08-26T12:01:38.352Z,34.04
2022-08-26T12:04:31.519Z,34.40
2022-08-26T12:07:24.934Z,35.12
2022-08-26T12:10:29.538Z,35.73
2022-08-26T12:13:23.229Z,36.98
2022-08-26T12:16:12.289Z,37.45
2022-08-26T12:19:01.099Z,38.18
2022-08-26T12:21:50.828Z,38.83
2022-08-26T12:24:45.001Z,38.60
2022-08-26T12:27:39.876Z,39.13
2022-08-26T12:30:29.952Z,39.53
2022-08-26T12:33:22.994Z,38.92
2022-08-26T12:36:23.740Z,38.77
2022-08-26T12:39:14.573Z,39.90
2022-08-26T12:42:05.005Z,39.90
2022-08-26T12:45:03.859Z,40.11
2022-08-26T12:47:57.454Z,40.71
2022-08-26T12:50:48.723Z,40.42
2022-08-26T12:53:44.318Z,40.76
2022-08-26T12:56:38.533Z,40.76
2022-08-26T12:59:27.472Z,40.21
2022-08-26T13:02:38.499Z,40.12
2022-08-26T13:05:33.203Z,40.26
2022-08-26T13:08:27.798Z,39.48
2022-08-26T13:11:20.721Z,39.47
2022-08-26T13:14:10.944Z,39.81
2022-08-26T13:16:59.487Z,39.24
2022-08-26T13:19:49.343Z,39.64
2022-08-26T13:22:38.432Z,39.96
2022-08-26T13:25:27.202Z,39.78
2022-08-26T13:28:15.579Z,40.04
2022-08-26T13:31:05.355Z,40.03
2022-08-26T13:33:54.032Z,40.00
2022-08-26T13:36:45.091Z,39.89
2022-08-26T13:39:34.240Z,39.89
2022-08-26T13:42:23.060Z,40.15
2022-08-26T13:45:12.538Z,40.26
2022-08-26T13:48:01.151Z,40.58
2022-08-26T13:50:49.905Z,39.83
2022-08-26T13:53:39.726Z,40.04
2022-08-26T13:56:30.977Z,40.46
2022-08-26T13:59:19.549Z,40.00
2022-08-26T14:02:08.661Z,39.96
2022-08-26T14:04:58.534Z,40.23
2022-08-26T14:07:47.084Z,40.60
2022-08-26T14:10:37.212Z,40.47
2022-08-26T14:13:25.816Z,40.11
2022-08-26T14:16:20.835Z,39.89
2022-08-26T14:19:10.284Z,39.94
2022-08-26T14:22:01.145Z,40.47
2022-08-26T14:24:50.383Z,40.62
2022-08-26T14:27:40.889Z,40.44
2022-08-26T14:30:30.004Z,40.16
2022-08-26T14:33:21.177Z,40.10
2022-08-26T14:36:27.376Z,40.26
2022-08-26T14:39:15.941Z,40.43
2022-08-26T14:42:04.443Z,40.45
2022-08-26T14:44:57.711Z,40.37
2022-08-26T14:47:47.720Z,40.19
2022-08-26T14:50:36.435Z,40.08
2022-08-26T14:53:42.461Z,39.89
2022-08-26T14:56:32.433Z,40.11
2022-08-26T14:59:23.954Z,39.65
2022-08-26T15:02:32.615Z,39.66
2022-08-26T15:05:22.375Z,40.11
2022-08-26T15:08:10.991Z,40.02
2022-08-26T15:10:59.650Z,40.57
2022-08-26T15:13:48.620Z,39.47
2022-08-26T15:16:37.435Z,40.06
2022-08-26T15:19:28.444Z,40.40
2022-08-26T15:22:16.951Z,40.62
2022-08-26T15:25:06.373Z,40.43
2022-08-26T15:27:54.981Z,40.75
2022-08-26T15:30:44.278Z,40.80
2022-08-26T15:33:33.249Z,40.65
2022-08-26T15:36:23.063Z,40.50
2022-08-26T15:39:12.429Z,40.72
2022-08-26T15:42:01.122Z,40.74
2022-08-26T15:44:50.043Z,40.48
2022-08-26T15:48:00.814Z,40.46
2022-08-26T15:50:52.441Z,40.37
2022-08-26T15:53:42.323Z,40.15
2022-08-26T15:56:32.687Z,40.14
2022-08-26T15:59:25.999Z,40.06
2022-08-26T16:02:14.714Z,39.88
2022-08-26T16:05:03.484Z,39.68
2022-08-26T16:07:51.917Z,39.74
2022-08-26T16:10:49.216Z,38.98
2022-08-26T16:13:39.994Z,38.68
2022-08-26T16:16:28.948Z,38.46
2022-08-26T16:19:17.580Z,38.64
2022-08-26T16:22:09.267Z,38.80
2022-08-26T16:24:58.641Z,38.82
2022-08-26T16:27:48.435Z,38.17
2022-08-26T16:30:37.108Z,38.29
2022-08-26T16:33:30.062Z,38.35
2022-08-26T16:36:18.592Z,38.22
2022-08-26T16:39:08.781Z,37.98
2022-08-26T16:41:57.325Z,37.90
2022-08-26T16:44:47.125Z,37.36
2022-08-26T16:47:35.728Z,36.99
2022-08-26T16:50:25.409Z,36.92
2022-08-26T16:56:03.547Z,36.62
2022-08-26T16:58:54.211Z,36.28
2022-08-26T17:01:44.225Z,36.05
2022-08-26T17:04:33.131Z,35.73
2022-08-26T17:07:21.557Z,35.48
2022-08-26T17:10:11.330Z,35.11
2022-08-26T17:12:59.845Z,34.77
2022-08-26T17:15:54.210Z,34.68
2022-08-26T17:18:48.594Z,34.48
2022-08-26T17:21:37.932Z,34.20
2022-08-26T17:24:26.333Z,34.00
2022-08-26T17:27:14.971Z,33.81
2022-08-26T17:30:03.475Z,33.58
2022-08-26T17:32:51.906Z,33.02
2022-08-26T17:35:41.899Z,32.96
2022-08-26T17:38:30.453Z,32.69
2022-08-26T17:41:20.020Z,32.16
2022-08-26T17:44:08.751Z,31.99
2022-08-26T17:46:57.541Z,31.84
2022-08-26T17:49:46.108Z,31.59
2022-08-26T17:52:35.972Z,31.46
2022-08-26T17:55:24.469Z,31.24
2022-08-26T17:58:14.655Z,30.95
2022-08-26T18:01:04.791Z,30.96
2022-08-26T18:04:00.072Z,30.78
2022-08-26T18:06:49.567Z,30.70
2022-08-26T18:09:39.467Z,30.37
2022-08-26T18:12:27.883Z,30.34
2022-08-26T18:15:18.594Z,30.25
2022-08-26T18:18:07.274Z,30.11
2022-08-26T18:21:01.847Z,29.80
2022-08-26T18:23:51.672Z,29.52
2022-08-26T18:26:48.088Z,29.31
2022-08-26T18:29:36.589Z,29.09
2022-08-26T18:32:33.958Z,28.89
2022-08-26T18:35:22.443Z,28.80
2022-08-26T18:38:13.877Z,28.70
2022-08-26T18:41:05.511Z,28.34
2022-08-26T18:43:55.814Z,28.21
2022-08-26T18:46:45.279Z,28.30
2022-08-26T18:49:33.670Z,28.13
2022-08-26T18:52:22.752Z,28.17
2022-08-26T18:55:12.739Z,28.05
2022-08-26T18:58:01.241Z,27.91
2022-08-26T19:00:51.364Z,27.78
2022-08-26T19:03:39.911Z,27.61
2022-08-26T19:06:32.925Z,27.59
2022-08-26T19:09:22.525Z,27.38
2022-08-26T19:12:11.596Z,27.40
2022-08-26T19:15:01.707Z,27.35
2022-08-26T19:17:51.576Z,27.23
2022-08-26T19:20:44.726Z,27.18
2022-08-26T19:23:35.367Z,27.12
2022-08-26T19:26:25.129Z,27.12
2022-08-26T19:29:15.326Z,27.03
2022-08-26T19:32:04.951Z,26.94
2022-08-26T19:34:55.054Z,26.89
2022-08-26T19:37:43.494Z,26.88
2022-08-26T19:40:34.954Z,26.80
2022-08-26T19:43:23.442Z,26.73
2022-08-26T19:46:13.592Z,26.64
2022-08-26T19:49:02.197Z,26.64
2022-08-26T19:51:54.521Z,26.59
2022-08-26T19:54:43.048Z,26.41
2022-08-26T19:57:31.744Z,26.42
2022-08-26T20:00:25.728Z,26.33
2022-08-26T20:03:16.172Z,26.29
2022-08-26T20:06:06.517Z,26.18
2022-08-26T20:08:56.516Z,26.11
2022-08-26T20:11:44.999Z,26.15
2022-08-26T20:14:34.010Z,25.97
2022-08-26T20:17:22.666Z,25.95
2022-08-26T20:20:33.363Z,25.97
2022-08-26T20:23:22.314Z,25.96
2022-08-26T20:26:12.160Z,25.90
2022-08-26T20:29:01.422Z,25.90
2022-08-26T20:31:50.756Z,25.88
2022-08-26T20:34:40.146Z,25.81
2022-08-26T20:37:29.462Z,25.82
2022-08-26T20:40:18.058Z,25.76
2022-08-26T20:43:07.920Z,25.72
2022-08-26T20:45:56.398Z,25.75
2022-08-26T20:48:44.966Z,25.63
2022-08-26T20:51:34.755Z,25.53
2022-08-26T20:54:28.185Z,25.60
2022-08-26T20:57:17.045Z,25.60
2022-08-26T21:00:08.162Z,25.49
2022-08-26T21:02:57.477Z,25.57
2022-08-26T21:05:45.946Z,25.55
2022-08-26T21:08:34.450Z,25.53
2022-08-26T21:11:23.202Z,25.48
2022-08-26T21:14:16.620Z,25.43
2022-08-26T21:17:07.144Z,25.38
2022-08-26T21:19:55.735Z,25.38
2022-08-26T21:22:44.498Z,25.38
2022-08-26T21:25:33.066Z,25.34
2022-08-26T21:28:21.578Z,25.29
2022-08-26T21:31:13.140Z,25.29
2022-08-26T21:34:03.059Z,25.26
2022-08-26T21:36:51.666Z,25.19
2022-08-26T21:39:40.070Z,25.06
2022-08-26T21:42:33.110Z,25.05
2022-08-26T21:45:21.749Z,24.97
2022-08-26T21:48:10.419Z,24.82
2022-08-26T21:51:00.332Z,24.64
2022-08-26T21:53:48.870Z,24.74
2022-08-26T21:56:39.748Z,24.63
2022-08-26T21:59:28.507Z,24.56
2022-08-26T22:02:17.112Z,24.42
2022-08-26T22:05:06.526Z,24.46
2022-08-26T22:07:56.594Z,24.46
2022-08-26T22:10:45.172Z,24.43
2022-08-26T22:13:36.389Z,24.30
2022-08-26T22:16:26.125Z,24.23
2022-08-26T22:19:17.092Z,24.25
2022-08-26T22:22:06.053Z,24.20
2022-08-26T22:24:55.832Z,24.12
2022-08-26T22:27:44.183Z,24.01
2022-08-26T22:30:35.209Z,23.94
2022-08-26T22:33:24.735Z,23.97
2022-08-26T22:36:18.499Z,23.92
2022-08-26T22:39:06.914Z,23.86
2022-08-26T22:42:01.641Z,23.80
2022-08-26T22:44:50.097Z,23.82
2022-08-26T22:47:39.054Z,23.69
2022-08-26T22:50:27.923Z,23.59
2022-08-26T22:53:17.895Z,23.50
2022-08-26T22:56:06.973Z,23.49
2022-08-26T22:58:57.015Z,23.50
2022-08-26T23:01:46.953Z,23.48
2022-08-26T23:04:35.651Z,23.48
2022-08-26T23:07:24.281Z,23.56
2022-08-26T23:10:13.366Z,23.77
2022-08-26T23:13:04.333Z,23.77
2022-08-26T23:16:02.180Z,23.91
2022-08-26T23:18:50.731Z,23.80
2022-08-26T23:21:39.577Z,23.71
2022-08-26T23:24:28.219Z,23.73
2022-08-26T23:27:16.861Z,23.61
2022-08-26T23:30:05.946Z,23.58
2022-08-26T23:32:55.769Z,23.60
2022-08-26T23:35:44.311Z,23.51
2022-08-26T23:38:32.753Z,23.45
2022-08-26T23:41:22.757Z,23.41
2022-08-26T23:44:11.874Z,23.38
2022-08-26T23:47:00.803Z,23.21
2022-08-26T23:49:50.549Z,22.88
2022-08-26T23:52:56.880Z,22.73
2022-08-26T23:55:45.372Z,22.69
2022-08-26T23:58:33.878Z,22.68
